createdAt,value
2017-06-20T00:00:01.699Z,0
2017-06-20T00:01:11.922Z,0
2017-06-20T00:02:22.156Z,0
2017-06-20T00:03:31.788Z,0
2017-06-20T00:04:41.091Z,0
2017-06-20T00:05:51.012Z,0
2017-06-20T00:07:01.244Z,0
2017-06-20T00:08:11.482Z,0
2017-06-20T00:09:21.388Z,0
2017-06-20T00:10:31.296Z,0
2017-06-20T00:11:41.520Z,0
2017-06-20T00:12:51.124Z,0
2017-06-20T00:14:01.489Z,0
2017-06-20T00:15:11.090Z,0
2017-06-20T00:16:21.003Z,0
2017-06-20T00:17:30.961Z,0
2017-06-20T00:18:40.862Z,0
2017-06-20T00:19:50.842Z,0
2017-06-20T00:21:01.057Z,0
2017-06-20T00:22:10.965Z,0
2017-06-20T00:23:20.877Z,0
2017-06-20T00:24:30.177Z,0
2017-06-20T00:25:40.097Z,0
2017-06-20T00:26:50.048Z,0
2017-06-20T00:27:59.661Z,0
2017-06-20T00:29:08.676Z,0
2017-06-20T00:30:18.285Z,0
2017-06-20T00:31:28.538Z,0
2017-06-20T00:32:38.447Z,0
2017-06-20T00:33:48.413Z,0
2017-06-20T00:34:58.050Z,0
2017-06-20T00:36:07.960Z,0
2017-06-20T00:37:18.336Z,0
2017-06-20T00:38:28.009Z,0
2017-06-20T00:39:37.646Z,0
2017-06-20T00:40:47.273Z,0
2017-06-20T00:41:57.180Z,0
2017-06-20T00:43:07.443Z,0
2017-06-20T00:44:16.434Z,0
2017-06-20T00:45:26.037Z,0
2017-06-20T00:46:35.634Z,0
2017-06-20T00:47:45.546Z,0
2017-06-20T00:48:55.812Z,0
2017-06-20T00:50:05.432Z,0
2017-06-20T00:51:15.686Z,0
2017-06-20T00:52:25.934Z,0
2017-06-20T00:53:35.573Z,0
2017-06-20T00:54:45.176Z,0
2017-06-20T00:55:55.095Z,0
2017-06-20T00:57:04.723Z,0
2017-06-20T00:58:14.636Z,0
2017-06-20T00:59:24.548Z,0
2017-06-20T01:00:34.510Z,0
2017-06-20T01:01:44.433Z,0
2017-06-20T01:02:54.358Z,0
2017-06-20T01:04:03.651Z,0
2017-06-20T01:05:13.874Z,0
2017-06-20T01:06:24.283Z,0
2017-06-20T01:07:33.894Z,0
2017-06-20T01:08:43.805Z,0
2017-06-20T01:09:53.102Z,0
2017-06-20T01:11:02.711Z,0
2017-06-20T01:12:12.939Z,0
2017-06-20T01:13:22.893Z,0
2017-06-20T01:14:32.805Z,0
2017-06-20T01:15:42.442Z,0
2017-06-20T01:16:52.069Z,0
2017-06-20T01:18:02.392Z,0
2017-06-20T01:19:12.013Z,0
2017-06-20T01:20:21.937Z,0
2017-06-20T01:21:31.237Z,0
2017-06-20T01:22:40.846Z,0
2017-06-20T01:23:51.091Z,0
2017-06-20T01:25:00.738Z,0
2017-06-20T01:26:10.359Z,0
2017-06-20T01:27:19.983Z,0
2017-06-20T01:28:30.212Z,0
2017-06-20T01:29:40.502Z,0
2017-06-20T01:30:50.131Z,0
2017-06-20T01:32:00.365Z,0
2017-06-20T01:33:09.977Z,0
2017-06-20T01:34:18.986Z,0
2017-06-20T01:35:28.690Z,0
2017-06-20T01:36:38.621Z,0
2017-06-20T01:37:48.861Z,0
2017-06-20T01:38:58.789Z,0
2017-06-20T01:40:08.088Z,0
2017-06-20T01:41:18.459Z,0
2017-06-20T01:42:28.116Z,0
2017-06-20T01:43:37.727Z,0
2017-06-20T01:44:47.641Z,0
2017-06-20T01:45:56.946Z,0
2017-06-20T01:47:07.258Z,0
2017-06-20T01:48:17.473Z,0
2017-06-20T01:49:27.076Z,0
2017-06-20T01:50:37.304Z,0
2017-06-20T01:51:46.614Z,0
2017-06-20T01:52:56.217Z,0
2017-06-20T01:54:06.141Z,0
2017-06-20T01:55:15.442Z,0
2017-06-20T01:56:25.669Z,0
2017-06-20T01:57:35.288Z,0
2017-06-20T01:58:45.610Z,0
2017-06-20T01:59:55.829Z,0
2017-06-20T02:01:05.738Z,0
2017-06-20T02:02:15.653Z,0
2017-06-20T02:03:25.589Z,0
2017-06-20T02:04:35.964Z,0
2017-06-20T02:05:45.573Z,0
2017-06-20T02:06:55.498Z,0
2017-06-20T02:08:05.727Z,0
2017-06-20T02:09:15.638Z,0
2017-06-20T02:10:25.253Z,0
2017-06-20T02:11:35.479Z,0
2017-06-20T02:12:45.400Z,0
2017-06-20T02:13:55.622Z,0
2017-06-20T02:15:05.236Z,0
2017-06-20T02:16:15.467Z,0
2017-06-20T02:17:25.688Z,0
2017-06-20T02:18:35.611Z,0
2017-06-20T02:19:45.834Z,0
2017-06-20T02:20:56.057Z,0
2017-06-20T02:22:05.038Z,0
2017-06-20T02:23:14.956Z,0
2017-06-20T02:24:24.558Z,0
2017-06-20T02:25:34.476Z,0
2017-06-20T02:26:44.095Z,0
2017-06-20T02:27:53.751Z,0
2017-06-20T02:29:03.961Z,0
2017-06-20T02:30:13.589Z,0
2017-06-20T02:31:22.895Z,0
2017-06-20T02:32:32.800Z,0
2017-06-20T02:33:42.715Z,0
2017-06-20T02:34:52.634Z,0
2017-06-20T02:36:02.264Z,0
2017-06-20T02:37:12.181Z,0
2017-06-20T02:38:21.483Z,0
2017-06-20T02:39:31.109Z,0
2017-06-20T02:40:41.039Z,0
2017-06-20T02:41:51.270Z,0
2017-06-20T02:43:01.497Z,0
2017-06-20T02:44:11.721Z,0
2017-06-20T02:45:21.739Z,0
2017-06-20T02:46:31.959Z,0
2017-06-20T02:47:41.941Z,0
2017-06-20T02:48:51.860Z,0
2017-06-20T02:50:02.073Z,0
2017-06-20T02:51:12.604Z,0
2017-06-20T02:52:22.536Z,4
2017-06-20T02:53:32.436Z,4
2017-06-20T02:54:42.055Z,4
2017-06-20T02:55:51.647Z,4
2017-06-20T02:57:01.872Z,0
2017-06-20T02:58:11.792Z,4
2017-06-20T02:59:22.030Z,4
2017-06-20T03:00:32.249Z,4
2017-06-20T03:01:42.166Z,8
2017-06-20T03:02:51.633Z,4
2017-06-20T03:04:01.560Z,4
2017-06-20T03:05:11.164Z,8
2017-06-20T03:06:21.389Z,8
2017-06-20T03:07:31.610Z,8
2017-06-20T03:08:41.828Z,8
2017-06-20T03:09:52.046Z,12
2017-06-20T03:11:01.348Z,8
2017-06-20T03:12:10.640Z,12
2017-06-20T03:13:20.592Z,16
2017-06-20T03:14:30.847Z,12
2017-06-20T03:15:40.764Z,16
2017-06-20T03:16:50.679Z,16
2017-06-20T03:17:59.682Z,16
2017-06-20T03:19:09.286Z,20
2017-06-20T03:20:19.188Z,20
2017-06-20T03:21:28.829Z,24
2017-06-20T03:22:39.052Z,28
2017-06-20T03:23:49.276Z,32
2017-06-20T03:24:58.574Z,36
2017-06-20T03:26:08.338Z,36
2017-06-20T03:27:18.262Z,40
2017-06-20T03:28:27.869Z,44
2017-06-20T03:29:38.096Z,48
2017-06-20T03:30:48.001Z,52
2017-06-20T03:31:57.604Z,56
2017-06-20T03:33:07.510Z,60
2017-06-20T03:34:17.418Z,64
2017-06-20T03:35:27.339Z,72
2017-06-20T03:36:37.248Z,72
2017-06-20T03:37:47.467Z,80
2017-06-20T03:38:57.076Z,88
2017-06-20T03:40:07.287Z,92
2017-06-20T03:41:17.196Z,100
2017-06-20T03:42:27.649Z,108
2017-06-20T03:43:37.251Z,112
2017-06-20T03:44:46.895Z,120
2017-06-20T03:45:56.814Z,128
2017-06-20T03:47:07.036Z,136
2017-06-20T03:48:16.648Z,144
2017-06-20T03:49:26.401Z,152
2017-06-20T03:50:36.323Z,160
2017-06-20T03:51:46.234Z,164
2017-06-20T03:52:56.474Z,176
2017-06-20T03:54:06.076Z,176
2017-06-20T03:55:15.784Z,188
2017-06-20T03:56:25.698Z,196
2017-06-20T03:57:35.612Z,200
2017-06-20T03:58:45.227Z,204
2017-06-20T03:59:55.134Z,212
2017-06-20T04:01:05.352Z,220
2017-06-20T04:02:15.262Z,224
2017-06-20T04:03:25.180Z,232
2017-06-20T04:04:35.094Z,236
2017-06-20T04:05:44.386Z,240
2017-06-20T04:06:54.003Z,248
2017-06-20T04:08:03.611Z,256
2017-06-20T04:09:13.536Z,264
2017-06-20T04:10:23.180Z,272
2017-06-20T04:11:33.098Z,284
2017-06-20T04:12:42.710Z,296
2017-06-20T04:13:52.627Z,304
2017-06-20T04:15:02.542Z,316
2017-06-20T04:16:11.849Z,328
2017-06-20T04:17:21.765Z,340
2017-06-20T04:18:31.840Z,348
2017-06-20T04:19:41.825Z,356
2017-06-20T04:20:51.737Z,360
2017-06-20T04:22:01.367Z,364
2017-06-20T04:23:11.297Z,376
2017-06-20T04:24:20.970Z,388
2017-06-20T04:25:31.199Z,392
2017-06-20T04:26:41.145Z,404
2017-06-20T04:27:51.086Z,412
2017-06-20T04:29:01.006Z,428
2017-06-20T04:30:10.774Z,440
2017-06-20T04:31:20.097Z,456
2017-06-20T04:32:30.029Z,476
2017-06-20T04:33:40.276Z,488
2017-06-20T04:34:50.195Z,504
2017-06-20T04:36:00.581Z,512
2017-06-20T04:37:10.213Z,528
2017-06-20T04:38:20.453Z,524
2017-06-20T04:39:29.774Z,556
2017-06-20T04:40:39.081Z,556
2017-06-20T04:41:49.013Z,556
2017-06-20T04:42:58.650Z,564
2017-06-20T04:44:08.268Z,560
2017-06-20T04:45:18.176Z,568
2017-06-20T04:46:27.816Z,568
2017-06-20T04:47:37.538Z,584
2017-06-20T04:48:47.490Z,604
2017-06-20T04:49:57.402Z,616
2017-06-20T04:51:07.332Z,624
2017-06-20T04:52:16.950Z,632
2017-06-20T04:53:27.303Z,640
2017-06-20T04:54:36.608Z,644
2017-06-20T04:55:45.900Z,624
2017-06-20T04:56:55.226Z,632
2017-06-20T04:58:05.458Z,624
2017-06-20T04:59:14.774Z,636
2017-06-20T05:00:25.011Z,640
2017-06-20T05:01:34.307Z,640
2017-06-20T05:02:44.572Z,640
2017-06-20T05:03:54.525Z,644
2017-06-20T05:05:04.159Z,644
2017-06-20T05:06:14.080Z,664
2017-06-20T05:07:24.315Z,684
2017-06-20T05:08:34.271Z,704
2017-06-20T05:09:43.901Z,728
2017-06-20T05:10:53.862Z,756
2017-06-20T05:12:03.780Z,784
2017-06-20T05:13:13.702Z,820
2017-06-20T05:14:23.666Z,872
2017-06-20T05:15:32.969Z,928
2017-06-20T05:16:42.572Z,976
2017-06-20T05:17:52.844Z,1068
2017-06-20T05:19:02.189Z,1164
2017-06-20T05:20:12.131Z,1244
2017-06-20T05:21:22.065Z,1592
2017-06-20T05:22:31.433Z,1804
2017-06-20T05:23:40.447Z,1880
2017-06-20T05:24:50.681Z,1836
2017-06-20T05:25:59.997Z,1920
2017-06-20T05:27:09.919Z,1968
2017-06-20T05:28:19.992Z,1992
2017-06-20T05:29:29.293Z,1944
2017-06-20T05:30:39.521Z,1920
2017-06-20T05:31:48.824Z,1992
2017-06-20T05:32:58.435Z,2004
2017-06-20T05:34:08.767Z,1996
2017-06-20T05:35:18.706Z,1924
2017-06-20T05:36:28.329Z,2064
2017-06-20T05:37:37.944Z,2100
2017-06-20T05:38:47.868Z,2124
2017-06-20T05:39:58.437Z,2120
2017-06-20T05:41:08.049Z,2140
2017-06-20T05:42:18.276Z,2156
2017-06-20T05:43:27.586Z,2184
2017-06-20T05:44:37.191Z,2204
2017-06-20T05:45:47.756Z,2184
2017-06-20T05:46:57.372Z,2244
2017-06-20T05:48:07.586Z,2276
2017-06-20T05:49:17.502Z,2296
2017-06-20T05:50:26.815Z,2484
2017-06-20T05:51:36.736Z,2532
2017-06-20T05:52:46.353Z,2264
2017-06-20T05:53:56.585Z,2288
2017-06-20T05:55:06.264Z,2388
2017-06-20T05:56:16.601Z,2428
2017-06-20T05:57:26.266Z,2440
2017-06-20T05:58:35.573Z,2428
2017-06-20T05:59:44.570Z,2448
2017-06-20T06:00:54.516Z,2232
2017-06-20T06:02:04.125Z,2300
2017-06-20T06:03:13.888Z,2324
2017-06-20T06:04:24.101Z,2448
2017-06-20T06:05:33.753Z,2508
2017-06-20T06:06:43.991Z,2592
2017-06-20T06:07:54.203Z,2612
2017-06-20T06:09:04.417Z,2644
2017-06-20T06:10:14.021Z,2672
2017-06-20T06:11:23.631Z,2704
2017-06-20T06:12:32.928Z,2748
2017-06-20T06:13:42.842Z,2776
2017-06-20T06:14:52.779Z,2828
2017-06-20T06:16:02.687Z,2816
2017-06-20T06:17:12.596Z,2864
2017-06-20T06:18:22.517Z,2924
2017-06-20T06:19:32.437Z,2928
2017-06-20T06:20:41.918Z,3100
2017-06-20T06:21:52.361Z,3156
2017-06-20T06:23:01.970Z,3196
2017-06-20T06:24:12.193Z,3392
2017-06-20T06:25:22.113Z,3472
2017-06-20T06:26:32.032Z,3144
2017-06-20T06:27:41.949Z,2988
2017-06-20T06:28:51.874Z,3064
2017-06-20T06:30:01.810Z,2928
2017-06-20T06:31:11.427Z,3080
2017-06-20T06:32:21.814Z,3064
2017-06-20T06:33:31.441Z,3024
2017-06-20T06:34:41.368Z,3144
2017-06-20T06:35:51.290Z,3128
2017-06-20T06:37:01.217Z,3156
2017-06-20T06:38:10.956Z,3064
2017-06-20T06:39:20.874Z,3052
2017-06-20T06:40:30.186Z,3088
2017-06-20T06:41:40.120Z,3104
2017-06-20T06:42:50.366Z,3172
2017-06-20T06:44:00.296Z,3152
2017-06-20T06:45:09.902Z,3184
2017-06-20T06:46:19.206Z,3200
2017-06-20T06:47:29.427Z,3264
2017-06-20T06:48:39.371Z,3328
2017-06-20T06:49:49.028Z,3328
2017-06-20T06:50:58.956Z,3376
2017-06-20T06:52:08.874Z,3412
2017-06-20T06:53:18.802Z,3444
2017-06-20T06:54:28.730Z,3432
2017-06-20T06:55:38.801Z,3400
2017-06-20T06:56:49.044Z,3068
2017-06-20T06:57:58.352Z,2904
2017-06-20T06:59:08.582Z,3596
2017-06-20T07:00:18.816Z,4412
2017-06-20T07:01:28.490Z,5156
2017-06-20T07:02:38.109Z,16912
2017-06-20T07:03:47.727Z,36608
2017-06-20T07:04:57.967Z,33120
2017-06-20T07:06:08.227Z,18368
2017-06-20T07:07:18.556Z,6128
2017-06-20T07:08:28.791Z,5064
2017-06-20T07:09:39.022Z,4868
2017-06-20T07:10:48.640Z,4784
2017-06-20T07:11:58.572Z,4760
2017-06-20T07:13:08.815Z,4780
2017-06-20T07:14:19.069Z,4860
2017-06-20T07:15:28.992Z,5788
2017-06-20T07:16:38.329Z,6436
2017-06-20T07:17:48.288Z,5532
2017-06-20T07:18:58.515Z,5396
2017-06-20T07:20:08.442Z,5412
2017-06-20T07:21:18.374Z,5444
2017-06-20T07:22:28.294Z,5448
2017-06-20T07:23:37.935Z,5552
2017-06-20T07:24:47.257Z,5596
2017-06-20T07:25:56.949Z,5652
2017-06-20T07:27:06.868Z,5772
2017-06-20T07:28:17.122Z,5964
2017-06-20T07:29:27.079Z,6164
2017-06-20T07:30:37.089Z,6344
2017-06-20T07:31:47.011Z,6508
2017-06-20T07:32:56.958Z,6764
2017-06-20T07:34:06.924Z,7116
2017-06-20T07:35:16.855Z,7624
2017-06-20T07:36:27.180Z,8228
2017-06-20T07:37:37.427Z,9676
2017-06-20T07:38:47.055Z,18720
2017-06-20T07:39:56.394Z,29376
2017-06-20T07:41:06.316Z,39904
2017-06-20T07:42:15.627Z,47296
2017-06-20T07:43:25.569Z,45536
2017-06-20T07:44:35.505Z,36160
2017-06-20T07:45:45.750Z,15072
2017-06-20T07:46:55.691Z,9312
2017-06-20T07:48:05.340Z,8728
2017-06-20T07:49:14.955Z,8580
2017-06-20T07:50:24.867Z,8628
2017-06-20T07:51:35.093Z,8900
2017-06-20T07:52:45.358Z,9408
2017-06-20T07:53:55.124Z,10372
2017-06-20T07:55:04.736Z,14160
2017-06-20T07:56:14.656Z,35744
2017-06-20T07:57:24.291Z,50176
2017-06-20T07:58:33.934Z,50752
2017-06-20T07:59:43.907Z,53184
2017-06-20T08:00:53.208Z,53760
2017-06-20T08:02:03.147Z,52832
2017-06-20T08:03:13.066Z,53472
2017-06-20T08:04:23.300Z,53792
2017-06-20T08:05:33.280Z,54560
2017-06-20T08:06:43.511Z,55104
2017-06-20T08:07:53.421Z,57568
2017-06-20T08:09:03.360Z,61152
2017-06-20T08:10:12.990Z,60832
2017-06-20T08:11:22.752Z,58080
2017-06-20T08:12:32.685Z,54464
2017-06-20T08:13:42.312Z,58400
2017-06-20T08:14:52.255Z,60640
2017-06-20T08:16:02.180Z,61120
2017-06-20T08:17:12.469Z,57280
2017-06-20T08:18:22.079Z,57472
2017-06-20T08:19:32.067Z,59648
2017-06-20T08:20:42.363Z,63680
2017-06-20T08:21:52.303Z,65376
2017-06-20T08:23:02.287Z,63232
2017-06-20T08:24:11.920Z,59136
2017-06-20T08:25:21.841Z,57152
2017-06-20T08:26:31.458Z,56704
2017-06-20T08:27:41.699Z,62624
2017-06-20T08:28:52.296Z,62272
2017-06-20T08:30:02.227Z,55648
2017-06-20T08:31:11.540Z,56608
2017-06-20T08:32:21.478Z,58336
2017-06-20T08:33:30.779Z,58720
2017-06-20T08:34:40.872Z,52096
2017-06-20T08:35:50.505Z,50848
2017-06-20T08:37:00.440Z,56640
2017-06-20T08:38:10.358Z,58144
2017-06-20T08:39:20.591Z,57056
2017-06-20T08:40:31.041Z,57696
2017-06-20T08:41:40.982Z,56992
2017-06-20T08:42:50.600Z,53984
2017-06-20T08:44:00.541Z,30560
2017-06-20T08:45:10.483Z,7604
2017-06-20T08:46:20.868Z,4772
2017-06-20T08:47:29.873Z,4112
2017-06-20T08:48:39.798Z,3692
2017-06-20T08:49:49.115Z,3416
2017-06-20T08:50:58.768Z,3224
2017-06-20T08:52:08.446Z,3060
2017-06-20T08:53:17.446Z,2924
2017-06-20T08:54:27.669Z,2664
2017-06-20T08:55:37.902Z,2224
2017-06-20T08:56:47.875Z,1988
2017-06-20T08:57:57.502Z,1928
2017-06-20T08:59:07.751Z,1876
2017-06-20T09:00:17.995Z,1812
2017-06-20T09:01:27.917Z,1756
2017-06-20T09:02:37.530Z,1700
2017-06-20T09:03:46.590Z,1628
2017-06-20T09:04:56.219Z,1616
2017-06-20T09:06:05.837Z,1584
2017-06-20T09:07:16.079Z,1540
2017-06-20T09:08:25.407Z,1504
2017-06-20T09:09:35.634Z,1456
2017-06-20T09:10:45.568Z,1420
2017-06-20T09:11:55.189Z,1392
2017-06-20T09:13:05.425Z,1376
2017-06-20T09:14:15.375Z,1356
2017-06-20T09:15:25.407Z,1344
2017-06-20T09:16:35.641Z,1332
2017-06-20T09:17:45.272Z,1328
2017-06-20T09:18:54.270Z,1320
2017-06-20T09:20:03.895Z,1308
2017-06-20T09:21:14.005Z,1296
2017-06-20T09:22:23.644Z,1280
2017-06-20T09:23:33.270Z,1264
2017-06-20T09:24:42.880Z,1244
2017-06-20T09:25:53.123Z,1224
2017-06-20T09:27:02.541Z,1204
2017-06-20T09:28:11.850Z,1204
2017-06-20T09:29:21.476Z,1208
2017-06-20T09:30:31.393Z,1220
2017-06-20T09:31:41.005Z,1232
2017-06-20T09:32:50.775Z,1240
2017-06-20T09:34:00.085Z,1248
2017-06-20T09:35:10.020Z,1256
2017-06-20T09:36:19.333Z,1252
2017-06-20T09:37:29.262Z,1244
2017-06-20T09:38:38.625Z,1248
2017-06-20T09:39:48.554Z,1232
2017-06-20T09:40:58.495Z,1228
2017-06-20T09:42:08.407Z,1256
2017-06-20T09:43:18.362Z,1304
2017-06-20T09:44:28.359Z,1328
2017-06-20T09:45:38.277Z,1344
2017-06-20T09:46:47.893Z,1332
2017-06-20T09:47:57.515Z,1324
2017-06-20T09:49:06.816Z,1312
2017-06-20T09:50:15.976Z,1284
2017-06-20T09:51:26.231Z,1268
2017-06-20T09:52:35.529Z,1252
2017-06-20T09:53:45.450Z,1236
2017-06-20T09:54:54.454Z,1224
2017-06-20T09:56:04.793Z,1220
2017-06-20T09:57:14.724Z,1200
2017-06-20T09:58:24.641Z,1148
2017-06-20T09:59:34.561Z,1148
2017-06-20T10:00:44.170Z,1156
2017-06-20T10:01:53.183Z,1152
2017-06-20T10:03:02.506Z,1132
2017-06-20T10:04:12.730Z,1072
2017-06-20T10:05:22.386Z,996
2017-06-20T10:06:32.301Z,936
2017-06-20T10:07:42.083Z,984
2017-06-20T10:08:52.313Z,1092
2017-06-20T10:10:01.918Z,1116
2017-06-20T10:11:11.863Z,1184
2017-06-20T10:12:21.796Z,1192
2017-06-20T10:13:31.720Z,1132
2017-06-20T10:14:41.941Z,1076
2017-06-20T10:15:51.863Z,1028
2017-06-20T10:17:02.092Z,992
2017-06-20T10:18:12.321Z,968
2017-06-20T10:19:21.687Z,944
2017-06-20T10:20:31.351Z,952
2017-06-20T10:21:41.304Z,952
2017-06-20T10:22:50.919Z,944
2017-06-20T10:24:01.170Z,944
2017-06-20T10:25:10.573Z,944
2017-06-20T10:26:20.487Z,936
2017-06-20T10:27:30.421Z,928
2017-06-20T10:28:40.643Z,928
2017-06-20T10:29:50.864Z,928
2017-06-20T10:31:00.627Z,928
2017-06-20T10:32:10.851Z,936
2017-06-20T10:33:20.464Z,940
2017-06-20T10:34:30.078Z,936
2017-06-20T10:35:40.008Z,936
2017-06-20T10:36:50.080Z,940
2017-06-20T10:37:59.691Z,936
2017-06-20T10:39:09.631Z,948
2017-06-20T10:40:19.583Z,944
2017-06-20T10:41:29.511Z,948
2017-06-20T10:42:39.769Z,956
2017-06-20T10:43:50.006Z,956
2017-06-20T10:45:00.235Z,964
2017-06-20T10:46:09.847Z,976
2017-06-20T10:47:19.773Z,968
2017-06-20T10:48:30.150Z,968
2017-06-20T10:49:40.072Z,960
2017-06-20T10:50:50.315Z,944
2017-06-20T10:51:59.341Z,944
2017-06-20T10:53:09.602Z,936
2017-06-20T10:54:19.643Z,932
2017-06-20T10:55:28.661Z,924
2017-06-20T10:56:38.602Z,916
2017-06-20T10:57:48.541Z,896
2017-06-20T10:58:58.460Z,884
2017-06-20T11:00:08.704Z,880
2017-06-20T11:01:18.623Z,872
2017-06-20T11:02:28.543Z,872
2017-06-20T11:03:38.471Z,872
2017-06-20T11:04:48.427Z,868
2017-06-20T11:05:58.096Z,860
2017-06-20T11:07:08.324Z,836
2017-06-20T11:08:18.245Z,816
2017-06-20T11:09:28.473Z,804
2017-06-20T11:10:38.391Z,800
2017-06-20T11:11:48.412Z,792
2017-06-20T11:12:58.636Z,784
2017-06-20T11:14:08.583Z,776
2017-06-20T11:15:18.509Z,768
2017-06-20T11:16:28.443Z,764
2017-06-20T11:17:38.825Z,760
2017-06-20T11:18:48.461Z,768
2017-06-20T11:19:58.385Z,788
2017-06-20T11:21:08.294Z,788
2017-06-20T11:22:18.234Z,788
2017-06-20T11:23:28.816Z,788
2017-06-20T11:24:38.729Z,764
2017-06-20T11:25:48.648Z,756
2017-06-20T11:26:58.608Z,688
2017-06-20T11:28:08.535Z,768
2017-06-20T11:29:18.608Z,764
2017-06-20T11:30:28.528Z,760
2017-06-20T11:31:37.845Z,744
2017-06-20T11:32:48.073Z,756
2017-06-20T11:33:57.702Z,768
2017-06-20T11:35:08.104Z,768
2017-06-20T11:36:18.362Z,760
2017-06-20T11:37:27.978Z,756
2017-06-20T11:38:38.206Z,748
2017-06-20T11:39:48.132Z,760
2017-06-20T11:40:58.048Z,784
2017-06-20T11:42:07.661Z,800
2017-06-20T11:43:17.887Z,816
2017-06-20T11:44:27.821Z,828
2017-06-20T11:45:37.439Z,828
2017-06-20T11:46:46.434Z,860
2017-06-20T11:47:56.352Z,892
2017-06-20T11:49:06.578Z,896
2017-06-20T11:50:16.818Z,868
2017-06-20T11:51:26.788Z,868
2017-06-20T11:52:36.463Z,840
2017-06-20T11:53:46.379Z,796
2017-06-20T11:54:56.306Z,744
2017-06-20T11:56:05.930Z,836
2017-06-20T11:57:15.855Z,876
2017-06-20T11:58:25.788Z,844
2017-06-20T11:59:36.042Z,916
2017-06-20T12:00:45.975Z,916
2017-06-20T12:01:56.224Z,892
2017-06-20T12:03:06.142Z,892
2017-06-20T12:04:15.805Z,896
2017-06-20T12:05:25.737Z,872
2017-06-20T12:06:35.979Z,828
2017-06-20T12:07:45.590Z,800
2017-06-20T12:08:54.916Z,824
2017-06-20T12:10:04.295Z,888
2017-06-20T12:11:13.915Z,936
2017-06-20T12:12:23.849Z,928
2017-06-20T12:13:34.084Z,884
2017-06-20T12:14:44.309Z,844
2017-06-20T12:15:54.235Z,852
2017-06-20T12:17:04.473Z,848
2017-06-20T12:18:14.721Z,856
2017-06-20T12:19:24.645Z,860
2017-06-20T12:20:34.574Z,832
2017-06-20T12:21:43.949Z,816
2017-06-20T12:22:53.566Z,796
2017-06-20T12:24:02.573Z,788
2017-06-20T12:25:12.201Z,780
2017-06-20T12:26:22.135Z,768
2017-06-20T12:27:32.094Z,796
2017-06-20T12:28:42.011Z,808
2017-06-20T12:29:51.942Z,820
2017-06-20T12:31:02.186Z,824
2017-06-20T12:32:12.120Z,836
2017-06-20T12:33:22.377Z,844
2017-06-20T12:34:31.996Z,796
2017-06-20T12:35:41.913Z,780
2017-06-20T12:36:52.147Z,800
2017-06-20T12:38:02.386Z,812
2017-06-20T12:39:12.311Z,848
2017-06-20T12:40:22.239Z,852
2017-06-20T12:41:31.863Z,832
2017-06-20T12:42:41.800Z,824
2017-06-20T12:43:51.718Z,772
2017-06-20T12:45:01.504Z,744
2017-06-20T12:46:11.428Z,784
2017-06-20T12:47:21.049Z,784
2017-06-20T12:48:30.680Z,764
2017-06-20T12:49:40.616Z,784
2017-06-20T12:50:50.717Z,792
2017-06-20T12:52:00.366Z,860
2017-06-20T12:53:10.696Z,892
2017-06-20T12:54:20.005Z,892
2017-06-20T12:55:30.244Z,880
2017-06-20T12:56:40.166Z,884
2017-06-20T12:57:50.397Z,876
2017-06-20T12:59:00.333Z,920
2017-06-20T13:00:10.580Z,1000
2017-06-20T13:01:20.198Z,1036
2017-06-20T13:02:29.815Z,1060
2017-06-20T13:03:39.775Z,1060
2017-06-20T13:04:49.393Z,1064
2017-06-20T13:05:59.318Z,1060
2017-06-20T13:07:09.253Z,1000
2017-06-20T13:08:19.209Z,956
2017-06-20T13:09:29.147Z,960
2017-06-20T13:10:38.770Z,956
2017-06-20T13:11:48.379Z,940
2017-06-20T13:12:58.639Z,936
2017-06-20T13:14:08.652Z,916
2017-06-20T13:15:18.260Z,880
2017-06-20T13:16:28.501Z,796
2017-06-20T13:17:38.427Z,740
2017-06-20T13:18:48.364Z,708
2017-06-20T13:19:58.287Z,660
2017-06-20T13:21:08.228Z,696
2017-06-20T13:22:17.552Z,744
2017-06-20T13:23:26.856Z,788
2017-06-20T13:24:37.097Z,860
2017-06-20T13:25:46.838Z,908
2017-06-20T13:26:56.252Z,980
2017-06-20T13:28:06.163Z,1044
2017-06-20T13:29:16.386Z,1104
2017-06-20T13:30:26.028Z,1072
2017-06-20T13:31:35.965Z,1096
2017-06-20T13:32:46.217Z,1128
2017-06-20T13:33:55.857Z,1156
2017-06-20T13:35:06.111Z,1156
2017-06-20T13:36:16.357Z,1140
2017-06-20T13:37:25.861Z,1080
2017-06-20T13:38:35.808Z,1068
2017-06-20T13:39:45.419Z,1012
2017-06-20T13:40:55.349Z,972
2017-06-20T13:42:05.289Z,940
2017-06-20T13:43:14.925Z,940
2017-06-20T13:44:24.574Z,940
2017-06-20T13:45:34.522Z,892
2017-06-20T13:46:44.143Z,864
2017-06-20T13:47:54.068Z,840
2017-06-20T13:49:04.103Z,840
2017-06-20T13:50:14.025Z,860
2017-06-20T13:51:23.955Z,888
2017-06-20T13:52:33.905Z,912
2017-06-20T13:53:43.839Z,776
2017-06-20T13:54:54.260Z,736
2017-06-20T13:56:04.193Z,708
2017-06-20T13:57:14.479Z,672
2017-06-20T13:58:24.432Z,656
2017-06-20T13:59:34.362Z,704
2017-06-20T14:00:44.331Z,616
2017-06-20T14:01:54.270Z,616
2017-06-20T14:03:04.190Z,640
2017-06-20T14:04:14.107Z,648
2017-06-20T14:05:24.335Z,644
2017-06-20T14:09:06.731Z,736
2017-06-20T14:10:16.978Z,736
2017-06-20T14:11:26.621Z,712
2017-06-20T14:12:36.558Z,704
2017-06-20T14:13:46.493Z,684
2017-06-20T14:14:56.210Z,672
2017-06-20T14:16:06.134Z,644
2017-06-20T14:17:15.750Z,664
2017-06-20T14:18:26.017Z,664
2017-06-20T14:19:35.709Z,684
2017-06-20T14:20:45.952Z,660
2017-06-20T14:21:55.569Z,648
2017-06-20T14:23:04.874Z,648
2017-06-20T14:24:14.814Z,616
2017-06-20T14:25:24.763Z,564
2017-06-20T14:26:34.832Z,576
2017-06-20T14:27:44.759Z,624
2017-06-20T14:28:54.682Z,700
2017-06-20T14:30:04.964Z,632
2017-06-20T14:31:15.244Z,688
2017-06-20T14:32:25.663Z,768
2017-06-20T14:33:35.790Z,736
2017-06-20T14:34:45.465Z,708
2017-06-20T14:35:55.701Z,648
2017-06-20T14:37:05.030Z,612
2017-06-20T14:38:15.017Z,604
2017-06-20T14:39:24.631Z,648
2017-06-20T14:40:34.359Z,656
2017-06-20T14:41:44.690Z,672
2017-06-20T14:42:54.318Z,648
2017-06-20T14:44:04.553Z,652
2017-06-20T14:45:14.797Z,652
2017-06-20T14:46:24.981Z,644
2017-06-20T14:47:35.232Z,756
2017-06-20T14:48:45.159Z,792
2017-06-20T14:49:54.639Z,812
2017-06-20T14:51:04.578Z,804
2017-06-20T14:52:13.976Z,712
2017-06-20T14:53:23.596Z,804
2017-06-20T14:54:33.213Z,824
2017-06-20T14:55:43.182Z,852
2017-06-20T14:56:53.415Z,820
2017-06-20T14:58:03.664Z,788
2017-06-20T14:59:13.283Z,736
2017-06-20T15:00:22.285Z,748
2017-06-20T15:01:31.701Z,712
2017-06-20T15:02:41.327Z,716
2017-06-20T15:03:50.897Z,692
2017-06-20T15:05:00.730Z,704
2017-06-20T15:06:10.710Z,740
2017-06-20T15:07:20.655Z,764
2017-06-20T15:08:30.308Z,784
2017-06-20T15:09:39.938Z,708
2017-06-20T15:10:49.889Z,636
2017-06-20T15:11:59.835Z,620
2017-06-20T15:13:09.872Z,608
2017-06-20T15:14:19.796Z,652
2017-06-20T15:15:29.707Z,684
2017-06-20T15:16:40.133Z,732
2017-06-20T15:17:50.318Z,724
2017-06-20T15:18:59.425Z,704
2017-06-20T15:20:09.350Z,696
2017-06-20T15:21:19.265Z,704
2017-06-20T15:22:28.906Z,716
2017-06-20T15:23:39.147Z,728
2017-06-20T15:24:49.647Z,748
2017-06-20T15:25:59.891Z,760
2017-06-20T15:27:09.831Z,748
2017-06-20T15:28:20.068Z,732
2017-06-20T15:29:29.707Z,716
2017-06-20T15:30:40.116Z,700
2017-06-20T15:31:50.357Z,648
2017-06-20T15:33:00.280Z,668
2017-06-20T15:34:10.382Z,668
2017-06-20T15:35:19.711Z,672
2017-06-20T15:36:29.647Z,668
2017-06-20T15:37:39.867Z,652
2017-06-20T15:38:49.488Z,648
2017-06-20T15:39:59.105Z,632
2017-06-20T15:41:08.774Z,620
2017-06-20T15:42:18.261Z,620
2017-06-20T15:43:28.203Z,604
2017-06-20T15:44:38.127Z,580
2017-06-20T15:45:48.378Z,572
2017-06-20T15:46:58.343Z,556
2017-06-20T15:48:08.604Z,548
2017-06-20T15:49:18.235Z,524
2017-06-20T15:50:28.421Z,512
2017-06-20T15:51:38.734Z,508
2017-06-20T15:52:48.657Z,512
2017-06-20T15:53:59.027Z,508
2017-06-20T15:55:08.973Z,500
2017-06-20T15:56:18.666Z,492
2017-06-20T15:57:28.693Z,484
2017-06-20T15:58:38.655Z,480
2017-06-20T15:59:48.899Z,472
2017-06-20T16:00:58.816Z,476
2017-06-20T16:02:09.041Z,476
2017-06-20T16:03:18.988Z,476
2017-06-20T16:04:28.977Z,480